sensor_id;sensor_type;location;lat;lon;timestamp;pressure;altitude;pressure_sealevel;temperature;humidity
73073;BME280;61260;51.090;-1.786;2022-10-03T00:01:57;102031.11;;;9.36;83.13
73073;BME280;61260;51.090;-1.786;2022-10-03T00:04:47;102039.27;;;9.30;83.35
73073;BME280;61260;51.090;-1.786;2022-10-03T00:07:37;102040.45;;;9.23;82.82
73073;BME280;61260;51.090;-1.786;2022-10-03T00:10:19;102043.01;;;9.13;82.50
73073;BME280;61260;51.090;-1.786;2022-10-03T00:13:05;102043.22;;;9.08;82.74
73073;BME280;61260;51.090;-1.786;2022-10-03T00:15:41;102045.52;;;9.06;83.06
73073;BME280;61260;51.090;-1.786;2022-10-03T00:18:23;102045.52;;;9.04;83.12
73073;BME280;61260;51.090;-1.786;2022-10-03T00:21:12;102051.44;;;8.99;82.77
73073;BME280;61260;51.090;-1.786;2022-10-03T00:23:50;102053.16;;;8.94;83.32
73073;BME280;61260;51.090;-1.786;2022-10-03T00:26:32;102054.90;;;8.91;83.58
73073;BME280;61260;51.090;-1.786;2022-10-03T00:29:39;102056.35;;;8.89;83.17
73073;BME280;61260;51.090;-1.786;2022-10-03T00:32:24;102054.46;;;8.85;83.23
73073;BME280;61260;51.090;-1.786;2022-10-03T00:35:09;102063.27;;;8.83;83.52
73073;BME280;61260;51.090;-1.786;2022-10-03T00:37:46;102059.16;;;8.79;83.35
73073;BME280;61260;51.090;-1.786;2022-10-03T00:40:46;102054.94;;;8.75;83.23
73073;BME280;61260;51.090;-1.786;2022-10-03T00:46:49;102062.83;;;8.73;83.16
73073;BME280;61260;51.090;-1.786;2022-10-03T00:55:25;102071.80;;;8.55;83.48
73073;BME280;61260;51.090;-1.786;2022-10-03T00:58:16;102066.92;;;8.50;83.50
73073;BME280;61260;51.090;-1.786;2022-10-03T01:00:53;102063.49;;;8.45;83.29
73073;BME280;61260;51.090;-1.786;2022-10-03T01:03:41;102066.97;;;8.42;83.12
73073;BME280;61260;51.090;-1.786;2022-10-03T01:06:33;102067.48;;;8.44;83.10
73073;BME280;61260;51.090;-1.786;2022-10-03T01:09:15;102075.71;;;8.40;83.22
73073;BME280;61260;51.090;-1.786;2022-10-03T01:11:55;102072.57;;;8.35;83.29
73073;BME280;61260;51.090;-1.786;2022-10-03T01:14:38;102078.27;;;8.33;83.37
73073;BME280;61260;51.090;-1.786;2022-10-03T01:17:18;102075.11;;;8.32;84.18
73073;BME280;61260;51.090;-1.786;2022-10-03T01:20:13;102074.94;;;8.33;84.14
73073;BME280;61260;51.090;-1.786;2022-10-03T01:23:08;102075.44;;;8.35;83.92
73073;BME280;61260;51.090;-1.786;2022-10-03T01:25:49;102076.23;;;8.38;84.43
73073;BME280;61260;51.090;-1.786;2022-10-03T01:28:38;102075.17;;;8.40;84.64
73073;BME280;61260;51.090;-1.786;2022-10-03T01:31:32;102076.59;;;8.40;84.09
73073;BME280;61260;51.090;-1.786;2022-10-03T01:34:06;102073.21;;;8.39;84.18
73073;BME280;61260;51.090;-1.786;2022-10-03T01:36:41;102072.82;;;8.40;84.36
73073;BME280;61260;51.090;-1.786;2022-10-03T01:39:20;102068.96;;;8.40;84.21
73073;BME280;61260;51.090;-1.786;2022-10-03T01:41:58;102065.80;;;8.40;84.38
73073;BME280;61260;51.090;-1.786;2022-10-03T01:44:40;102056.77;;;8.40;83.92
73073;BME280;61260;51.090;-1.786;2022-10-03T01:47:23;102051.98;;;8.36;83.70
73073;BME280;61260;51.090;-1.786;2022-10-03T01:49:59;102056.30;;;8.31;83.60
73073;BME280;61260;51.090;-1.786;2022-10-03T01:52:38;102059.23;;;8.26;83.70
73073;BME280;61260;51.090;-1.786;2022-10-03T01:55:17;102061.05;;;8.22;83.83
73073;BME280;61260;51.090;-1.786;2022-10-03T01:57:52;102059.17;;;8.18;84.05
73073;BME280;61260;51.090;-1.786;2022-10-03T02:00:33;102058.47;;;8.18;83.97
73073;BME280;61260;51.090;-1.786;2022-10-03T02:03:09;102057.12;;;8.19;84.13
73073;BME280;61260;51.090;-1.786;2022-10-03T02:05:49;102055.10;;;8.17;84.07
73073;BME280;61260;51.090;-1.786;2022-10-03T02:08:29;102051.75;;;8.14;84.26
73073;BME280;61260;51.090;-1.786;2022-10-03T02:11:05;102051.14;;;8.12;84.34
73073;BME280;61260;51.090;-1.786;2022-10-03T02:13:43;102040.55;;;8.08;84.69
73073;BME280;61260;51.090;-1.786;2022-10-03T02:16:19;102042.82;;;8.06;84.34
73073;BME280;61260;51.090;-1.786;2022-10-03T02:18:57;102040.81;;;8.02;84.18
73073;BME280;61260;51.090;-1.786;2022-10-03T02:21:30;102039.23;;;7.98;84.54
73073;BME280;61260;51.090;-1.786;2022-10-03T02:24:24;102039.10;;;7.95;84.33
73073;BME280;61260;51.090;-1.786;2022-10-03T02:27:21;102042.91;;;7.95;84.33
73073;BME280;61260;51.090;-1.786;2022-10-03T02:30:06;102036.09;;;7.92;84.56
73073;BME280;61260;51.090;-1.786;2022-10-03T02:35:57;102044.08;;;7.87;84.52
73073;BME280;61260;51.090;-1.786;2022-10-03T02:38:43;102046.46;;;7.85;84.65
73073;BME280;61260;51.090;-1.786;2022-10-03T02:41:40;102053.41;;;7.86;84.43
73073;BME280;61260;51.090;-1.786;2022-10-03T02:44:33;102047.85;;;7.87;84.62
73073;BME280;61260;51.090;-1.786;2022-10-03T02:47:33;102042.20;;;7.87;84.94
73073;BME280;61260;51.090;-1.786;2022-10-03T02:53:35;102045.77;;;7.92;84.68
73073;BME280;61260;51.090;-1.786;2022-10-03T02:59:47;102035.86;;;8.03;85.07
73073;BME280;61260;51.090;-1.786;2022-10-03T03:02:37;102038.67;;;8.06;84.65
73073;BME280;61260;51.090;-1.786;2022-10-03T03:05:24;102033.87;;;8.08;84.70
73073;BME280;61260;51.090;-1.786;2022-10-03T03:08:12;102029.20;;;8.13;84.59
73073;BME280;61260;51.090;-1.786;2022-10-03T03:14:18;102034.36;;;8.13;84.95
73073;BME280;61260;51.090;-1.786;2022-10-03T03:17:15;102022.13;;;8.16;84.76
73073;BME280;61260;51.090;-1.786;2022-10-03T03:20:02;102014.34;;;8.16;84.35
73073;BME280;61260;51.090;-1.786;2022-10-03T03:22:45;102011.17;;;8.18;84.55
73073;BME280;61260;51.090;-1.786;2022-10-03T03:25:32;102006.90;;;8.21;84.39
73073;BME280;61260;51.090;-1.786;2022-10-03T03:28:16;102005.30;;;8.18;84.00
73073;BME280;61260;51.090;-1.786;2022-10-03T03:30:55;102000.85;;;8.16;83.69
73073;BME280;61260;51.090;-1.786;2022-10-03T03:33:38;102000.23;;;8.16;83.38
73073;BME280;61260;51.090;-1.786;2022-10-03T03:36:16;102000.20;;;8.15;83.29
73073;BME280;61260;51.090;-1.786;2022-10-03T03:38:53;102000.16;;;8.15;83.51
73073;BME280;61260;51.090;-1.786;2022-10-03T03:41:48;101991.86;;;8.16;83.77
73073;BME280;61260;51.090;-1.786;2022-10-03T03:44:42;101986.97;;;8.17;83.69
73073;BME280;61260;51.090;-1.786;2022-10-03T03:47:33;101987.68;;;8.21;83.83
73073;BME280;61260;51.090;-1.786;2022-10-03T03:50:26;101986.98;;;8.24;83.81
73073;BME280;61260;51.090;-1.786;2022-10-03T03:53:24;101978.41;;;8.26;83.49
73073;BME280;61260;51.090;-1.786;2022-10-03T03:59:06;101991.13;;;8.27;84.10
73073;BME280;61260;51.090;-1.786;2022-10-03T04:01:56;101998.39;;;8.26;83.95
73073;BME280;61260;51.090;-1.786;2022-10-03T04:04:43;102003.58;;;8.24;84.12
73073;BME280;61260;51.090;-1.786;2022-10-03T04:07:32;102005.48;;;8.20;84.24
73073;BME280;61260;51.090;-1.786;2022-10-03T04:10:19;102009.61;;;8.15;84.43
73073;BME280;61260;51.090;-1.786;2022-10-03T04:13:04;102014.46;;;8.11;84.53
73073;BME280;61260;51.090;-1.786;2022-10-03T04:15:53;102013.52;;;8.07;84.51
73073;BME280;61260;51.090;-1.786;2022-10-03T04:18:41;102017.55;;;8.07;84.28
73073;BME280;61260;51.090;-1.786;2022-10-03T04:21:54;102013.42;;;8.03;84.11
73073;BME280;61260;51.090;-1.786;2022-10-03T04:24:56;102013.02;;;8.01;84.78
73073;BME280;61260;51.090;-1.786;2022-10-03T04:27:48;102010.51;;;7.98;84.50
73073;BME280;61260;51.090;-1.786;2022-10-03T04:30:28;102010.59;;;7.95;84.83
73073;BME280;61260;51.090;-1.786;2022-10-03T04:33:11;102012.52;;;7.93;84.40
73073;BME280;61260;51.090;-1.786;2022-10-03T04:36:12;102005.52;;;7.92;84.52
73073;BME280;61260;51.090;-1.786;2022-10-03T04:38:52;102010.16;;;7.90;84.78
73073;BME280;61260;51.090;-1.786;2022-10-03T04:41:30;102009.74;;;7.89;85.59
73073;BME280;61260;51.090;-1.786;2022-10-03T04:44:10;102005.45;;;7.89;85.34
73073;BME280;61260;51.090;-1.786;2022-10-03T04:46:49;102002.63;;;7.92;85.22
73073;BME280;61260;51.090;-1.786;2022-10-03T04:49:26;102001.26;;;7.94;85.07
73073;BME280;61260;51.090;-1.786;2022-10-03T04:52:03;101997.27;;;7.96;85.05
73073;BME280;61260;51.090;-1.786;2022-10-03T04:54:48;101992.52;;;7.96;85.20
73073;BME280;61260;51.090;-1.786;2022-10-03T04:57:34;101994.79;;;7.97;84.95
73073;BME280;61260;51.090;-1.786;2022-10-03T05:00:19;101986.52;;;8.01;84.63
73073;BME280;61260;51.090;-1.786;2022-10-03T05:02:56;101986.46;;;8.01;83.91
73073;BME280;61260;51.090;-1.786;2022-10-03T05:05:40;101989.64;;;8.00;84.18
73073;BME280;61260;51.090;-1.786;2022-10-03T05:08:26;101988.75;;;8.01;84.55
73073;BME280;61260;51.090;-1.786;2022-10-03T05:11:10;101986.64;;;8.04;84.49
73073;BME280;61260;51.090;-1.786;2022-10-03T05:13:57;101984.34;;;8.08;85.01
73073;BME280;61260;51.090;-1.786;2022-10-03T05:16:38;101989.09;;;8.13;84.67
73073;BME280;61260;51.090;-1.786;2022-10-03T05:20:02;101987.20;;;8.15;84.66
73073;BME280;61260;51.090;-1.786;2022-10-03T05:22:46;101989.79;;;8.17;84.62
73073;BME280;61260;51.090;-1.786;2022-10-03T05:25:30;101992.04;;;8.16;84.70
73073;BME280;61260;51.090;-1.786;2022-10-03T05:28:16;101992.55;;;8.14;84.81
73073;BME280;61260;51.090;-1.786;2022-10-03T05:30:55;101992.54;;;8.11;84.61
73073;BME280;61260;51.090;-1.786;2022-10-03T05:33:39;101997.30;;;8.08;84.96
73073;BME280;61260;51.090;-1.786;2022-10-03T05:36:24;101991.17;;;8.03;84.85
73073;BME280;61260;51.090;-1.786;2022-10-03T05:39:23;101987.63;;;8.00;84.77
73073;BME280;61260;51.090;-1.786;2022-10-03T05:41:55;101985.45;;;7.93;84.63
73073;BME280;61260;51.090;-1.786;2022-10-03T05:44:38;101982.05;;;7.88;84.78
73073;BME280;61260;51.090;-1.786;2022-10-03T05:47:12;101984.16;;;7.90;84.56
73073;BME280;61260;51.090;-1.786;2022-10-03T05:50:32;101990.33;;;7.89;84.86
73073;BME280;61260;51.090;-1.786;2022-10-03T05:53:19;101988.10;;;7.85;84.77
73073;BME280;61260;51.090;-1.786;2022-10-03T05:56:03;101984.80;;;7.87;85.00
73073;BME280;61260;51.090;-1.786;2022-10-03T05:58:54;101991.16;;;7.92;85.40
73073;BME280;61260;51.090;-1.786;2022-10-03T06:07:50;101985.68;;;8.11;85.51
73073;BME280;61260;51.090;-1.786;2022-10-03T06:10:44;101982.23;;;8.16;84.95
73073;BME280;61260;51.090;-1.786;2022-10-03T06:13:33;101978.80;;;8.22;85.13
73073;BME280;61260;51.090;-1.786;2022-10-03T06:16:19;101981.71;;;8.27;85.19
73073;BME280;61260;51.090;-1.786;2022-10-03T06:19:16;101986.92;;;8.30;84.83
73073;BME280;61260;51.090;-1.786;2022-10-03T06:22:23;101993.09;;;8.31;84.80
73073;BME280;61260;51.090;-1.786;2022-10-03T06:31:39;101984.66;;;8.44;84.36
73073;BME280;61260;51.090;-1.786;2022-10-03T06:34:55;101981.19;;;8.51;84.38
73073;BME280;61260;51.090;-1.786;2022-10-03T06:41:21;101974.20;;;8.69;84.16
73073;BME280;61260;51.090;-1.786;2022-10-03T06:44:21;101975.28;;;8.73;84.05
73073;BME280;61260;51.090;-1.786;2022-10-03T06:47:19;101978.05;;;8.79;83.83
73073;BME280;61260;51.090;-1.786;2022-10-03T06:53:24;101981.08;;;8.90;84.15
73073;BME280;61260;51.090;-1.786;2022-10-03T06:56:25;101986.45;;;9.02;84.28
73073;BME280;61260;51.090;-1.786;2022-10-03T06:59:30;101987.02;;;9.11;84.25
73073;BME280;61260;51.090;-1.786;2022-10-03T07:02:28;101980.84;;;9.21;84.03
73073;BME280;61260;51.090;-1.786;2022-10-03T07:11:20;101987.11;;;9.47;83.33
73073;BME280;61260;51.090;-1.786;2022-10-03T07:14:15;101987.15;;;9.53;82.96
73073;BME280;61260;51.090;-1.786;2022-10-03T07:17:14;101990.45;;;9.62;82.95
73073;BME280;61260;51.090;-1.786;2022-10-03T07:20:15;101979.26;;;9.67;82.68
73073;BME280;61260;51.090;-1.786;2022-10-03T07:23:16;101968.55;;;9.72;82.28
73073;BME280;61260;51.090;-1.786;2022-10-03T07:26:17;101966.81;;;9.79;82.32
73073;BME280;61260;51.090;-1.786;2022-10-03T07:29:11;101972.57;;;9.88;82.52
73073;BME280;61260;51.090;-1.786;2022-10-03T07:32:02;101977.52;;;9.98;82.50
73073;BME280;61260;51.090;-1.786;2022-10-03T07:35:20;101973.76;;;10.07;82.33
73073;BME280;61260;51.090;-1.786;2022-10-03T07:38:36;101975.90;;;10.21;82.06
73073;BME280;61260;51.090;-1.786;2022-10-03T07:41:45;101977.48;;;10.37;81.97
73073;BME280;61260;51.090;-1.786;2022-10-03T07:50:43;101977.70;;;10.73;81.47
73073;BME280;61260;51.090;-1.786;2022-10-03T07:56:33;101975.92;;;10.93;80.38
73073;BME280;61260;51.090;-1.786;2022-10-03T07:59:38;101983.71;;;11.02;80.58
73073;BME280;61260;51.090;-1.786;2022-10-03T08:02:29;101992.29;;;11.16;80.17
73073;BME280;61260;51.090;-1.786;2022-10-03T08:05:17;101999.05;;;11.29;80.18
73073;BME280;61260;51.090;-1.786;2022-10-03T08:08:11;102000.64;;;11.45;80.33
73073;BME280;61260;51.090;-1.786;2022-10-03T08:11:09;102008.66;;;11.62;80.07
73073;BME280;61260;51.090;-1.786;2022-10-03T08:13:59;102012.92;;;11.83;79.62
73073;BME280;61260;51.090;-1.786;2022-10-03T08:16:52;102014.58;;;12.00;79.11
73073;BME280;61260;51.090;-1.786;2022-10-03T08:19:44;102015.73;;;12.25;79.04
73073;BME280;61260;51.090;-1.786;2022-10-03T08:22:35;102007.04;;;12.54;78.45
73073;BME280;61260;51.090;-1.786;2022-10-03T08:25:21;102006.61;;;12.71;77.37
73073;BME280;61260;51.090;-1.786;2022-10-03T08:31:19;102010.94;;;13.27;76.35
73073;BME280;61260;51.090;-1.786;2022-10-03T08:34:06;102008.41;;;13.49;75.67
73073;BME280;61260;51.090;-1.786;2022-10-03T08:39:59;102004.98;;;13.79;74.75
73073;BME280;61260;51.090;-1.786;2022-10-03T08:42:57;102001.58;;;13.96;73.80
73073;BME280;61260;51.090;-1.786;2022-10-03T08:48:53;101988.84;;;14.31;73.05
73073;BME280;61260;51.090;-1.786;2022-10-03T08:55:22;101986.05;;;15.05;71.39
73073;BME280;61260;51.090;-1.786;2022-10-03T09:01:26;101977.73;;;15.91;68.81
73073;BME280;61260;51.090;-1.786;2022-10-03T09:07:07;101980.21;;;16.45;65.92
73073;BME280;61260;51.090;-1.786;2022-10-03T09:10:21;101982.25;;;16.71;65.53
73073;BME280;61260;51.090;-1.786;2022-10-03T09:13:30;101979.59;;;17.06;65.21
73073;BME280;61260;51.090;-1.786;2022-10-03T09:22:34;101984.95;;;18.00;63.34
73073;BME280;61260;51.090;-1.786;2022-10-03T09:25:31;101989.52;;;18.23;61.25
73073;BME280;61260;51.090;-1.786;2022-10-03T09:28:27;101986.21;;;18.63;61.09
73073;BME280;61260;51.090;-1.786;2022-10-03T09:31:13;101982.90;;;19.36;58.83
73073;BME280;61260;51.090;-1.786;2022-10-03T09:34:08;101979.13;;;20.20;58.08
73073;BME280;61260;51.090;-1.786;2022-10-03T09:37:07;101971.45;;;21.57;57.26
73073;BME280;61260;51.090;-1.786;2022-10-03T09:40:14;101969.15;;;22.56;48.95
73073;BME280;61260;51.090;-1.786;2022-10-03T09:43:07;101966.40;;;22.10;48.60
73073;BME280;61260;51.090;-1.786;2022-10-03T09:46:04;101960.36;;;21.86;50.32
73073;BME280;61260;51.090;-1.786;2022-10-03T09:49:00;101956.55;;;22.24;48.95
73073;BME280;61260;51.090;-1.786;2022-10-03T09:51:51;101958.21;;;22.73;49.87
73073;BME280;61260;51.090;-1.786;2022-10-03T09:57:55;101948.02;;;23.33;47.51
73073;BME280;61260;51.090;-1.786;2022-10-03T10:00:43;101947.09;;;23.03;47.70
73073;BME280;61260;51.090;-1.786;2022-10-03T10:06:55;101936.09;;;23.36;46.66
73073;BME280;61260;51.090;-1.786;2022-10-03T10:09:40;101933.99;;;23.81;46.49
73073;BME280;61260;51.090;-1.786;2022-10-03T10:12:37;101934.09;;;24.21;45.35
73073;BME280;61260;51.090;-1.786;2022-10-03T10:15:35;101927.77;;;24.44;44.77
73073;BME280;61260;51.090;-1.786;2022-10-03T10:18:38;101929.16;;;25.02;45.46
73073;BME280;61260;51.090;-1.786;2022-10-03T10:21:40;101929.29;;;26.24;43.55
73073;BME280;61260;51.090;-1.786;2022-10-03T10:27:38;101923.46;;;27.62;38.88
73073;BME280;61260;51.090;-1.786;2022-10-03T10:30:51;101924.70;;;27.71;37.91
73073;BME280;61260;51.090;-1.786;2022-10-03T10:33:50;101928.75;;;27.77;38.36
73073;BME280;61260;51.090;-1.786;2022-10-03T10:40:29;101919.27;;;28.81;37.58
73073;BME280;61260;51.090;-1.786;2022-10-03T10:50:14;101919.38;;;28.11;37.09
73073;BME280;61260;51.090;-1.786;2022-10-03T11:24:18;101904.16;;;21.43;51.14
73073;BME280;61260;51.090;-1.786;2022-10-03T11:30:12;101901.33;;;21.17;52.26
73073;BME280;61260;51.090;-1.786;2022-10-03T11:36:25;101891.54;;;20.90;52.71
73073;BME280;61260;51.090;-1.786;2022-10-03T11:39:04;101895.17;;;20.77;53.20
73073;BME280;61260;51.090;-1.786;2022-10-03T11:41:52;101894.70;;;20.68;53.40
73073;BME280;61260;51.090;-1.786;2022-10-03T11:44:27;101891.24;;;20.51;53.71
73073;BME280;61260;51.090;-1.786;2022-10-03T11:47:20;101887.73;;;20.57;53.69
73073;BME280;61260;51.090;-1.786;2022-10-03T11:53:34;101886.75;;;22.13;49.28
73073;BME280;61260;51.090;-1.786;2022-10-03T11:56:31;101872.02;;;23.14;46.70
73073;BME280;61260;51.090;-1.786;2022-10-03T11:59:21;101865.73;;;23.90;44.53
73073;BME280;61260;51.090;-1.786;2022-10-03T12:02:06;101864.82;;;24.61;42.63
73073;BME280;61260;51.090;-1.786;2022-10-03T12:04:47;101863.56;;;24.55;42.46
73073;BME280;61260;51.090;-1.786;2022-10-03T12:07:36;101857.88;;;24.07;42.39
73073;BME280;61260;51.090;-1.786;2022-10-03T12:10:36;101856.46;;;23.67;42.84
73073;BME280;61260;51.090;-1.786;2022-10-03T12:13:13;101856.28;;;23.77;42.96
73073;BME280;61260;51.090;-1.786;2022-10-03T12:15:47;101852.52;;;24.13;42.88
73073;BME280;61260;51.090;-1.786;2022-10-03T12:18:23;101857.63;;;24.30;41.93
73073;BME280;61260;51.090;-1.786;2022-10-03T12:21:08;101855.80;;;24.27;42.50
73073;BME280;61260;51.090;-1.786;2022-10-03T12:23:53;101854.64;;;24.55;42.20
73073;BME280;61260;51.090;-1.786;2022-10-03T12:26:40;101843.19;;;24.62;41.94
73073;BME280;61260;51.090;-1.786;2022-10-03T12:29:15;101837.71;;;24.80;41.50
73073;BME280;61260;51.090;-1.786;2022-10-03T12:31:58;101834.58;;;24.95;41.05
73073;BME280;61260;51.090;-1.786;2022-10-03T12:34:41;101832.46;;;24.89;39.77
73073;BME280;61260;51.090;-1.786;2022-10-03T12:37:37;101832.88;;;24.50;40.40
73073;BME280;61260;51.090;-1.786;2022-10-03T12:40:16;101833.04;;;24.33;40.73
73073;BME280;61260;51.090;-1.786;2022-10-03T12:43:00;101827.20;;;24.18;40.84
73073;BME280;61260;51.090;-1.786;2022-10-03T12:45:33;101822.46;;;23.85;41.33
73073;BME280;61260;51.090;-1.786;2022-10-03T12:48:18;101822.73;;;23.34;42.56
73073;BME280;61260;51.090;-1.786;2022-10-03T12:50:56;101825.34;;;22.85;43.82
73073;BME280;61260;51.090;-1.786;2022-10-03T12:53:44;101821.55;;;22.51;44.87
73073;BME280;61260;51.090;-1.786;2022-10-03T12:56:18;101817.83;;;22.15;45.00
73073;BME280;61260;51.090;-1.786;2022-10-03T12:58:57;101823.84;;;21.75;46.10
73073;BME280;61260;51.090;-1.786;2022-10-03T13:01:39;101821.44;;;21.48;46.67
73073;BME280;61260;51.090;-1.786;2022-10-03T13:04:20;101819.62;;;21.27;47.61
73073;BME280;61260;51.090;-1.786;2022-10-03T13:07:15;101816.66;;;21.03;48.50
73073;BME280;61260;51.090;-1.786;2022-10-03T13:10:01;101808.10;;;20.88;49.12
73073;BME280;61260;51.090;-1.786;2022-10-03T13:12:42;101803.35;;;20.72;49.14
73073;BME280;61260;51.090;-1.786;2022-10-03T13:15:45;101799.35;;;20.60;49.53
73073;BME280;61260;51.090;-1.786;2022-10-03T13:18:35;101805.96;;;20.56;50.51
73073;BME280;61260;51.090;-1.786;2022-10-03T13:21:10;101798.17;;;20.54;49.86
73073;BME280;61260;51.090;-1.786;2022-10-03T13:23:46;101791.67;;;20.54;49.56
73073;BME280;61260;51.090;-1.786;2022-10-03T13:26:22;101793.84;;;20.57;48.48
73073;BME280;61260;51.090;-1.786;2022-10-03T13:29:11;101791.09;;;20.51;48.16
73073;BME280;61260;51.090;-1.786;2022-10-03T13:31:57;101783.91;;;20.39;48.49
73073;BME280;61260;51.090;-1.786;2022-10-03T13:34:35;101784.36;;;20.38;49.58
73073;BME280;61260;51.090;-1.786;2022-10-03T13:37:11;101783.57;;;20.38;49.91
73073;BME280;61260;51.090;-1.786;2022-10-03T13:39:46;101779.51;;;20.43;50.52
73073;BME280;61260;51.090;-1.786;2022-10-03T13:42:21;101782.05;;;20.43;49.52
73073;BME280;61260;51.090;-1.786;2022-10-03T13:44:59;101771.80;;;20.35;49.95
73073;BME280;61260;51.090;-1.786;2022-10-03T13:47:47;101770.02;;;20.32;50.36
73073;BME280;61260;51.090;-1.786;2022-10-03T13:50:24;101770.37;;;20.33;50.96
73073;BME280;61260;51.090;-1.786;2022-10-03T13:52:59;101773.09;;;20.23;51.07
73073;BME280;61260;51.090;-1.786;2022-10-03T13:55:38;101764.73;;;20.12;51.68
73073;BME280;61260;51.090;-1.786;2022-10-03T13:58:26;101761.39;;;20.10;51.94
73073;BME280;61260;51.090;-1.786;2022-10-03T14:01:23;101756.64;;;20.03;52.37
73073;BME280;61260;51.090;-1.786;2022-10-03T14:04:34;101756.66;;;20.00;52.13
73073;BME280;61260;51.090;-1.786;2022-10-03T14:07:13;101754.70;;;19.96;52.28
73073;BME280;61260;51.090;-1.786;2022-10-03T14:13:09;101753.46;;;19.91;53.32
73073;BME280;61260;51.090;-1.786;2022-10-03T14:15:50;101751.64;;;19.91;53.75
73073;BME280;61260;51.090;-1.786;2022-10-03T14:18:37;101747.15;;;19.93;53.43
73073;BME280;61260;51.090;-1.786;2022-10-03T14:21:34;101749.42;;;19.98;53.83
73073;BME280;61260;51.090;-1.786;2022-10-03T14:24:23;101747.21;;;19.99;53.88
73073;BME280;61260;51.090;-1.786;2022-10-03T14:27:00;101746.86;;;20.02;53.69
73073;BME280;61260;51.090;-1.786;2022-10-03T14:29:36;101744.11;;;19.97;53.96
73073;BME280;61260;51.090;-1.786;2022-10-03T14:32:14;101742.77;;;19.99;54.00
73073;BME280;61260;51.090;-1.786;2022-10-03T14:34:53;101740.11;;;19.95;53.89
73073;BME280;61260;51.090;-1.786;2022-10-03T14:37:29;101742.75;;;19.84;54.45
73073;BME280;61260;51.090;-1.786;2022-10-03T14:40:14;101738.80;;;19.71;54.79
73073;BME280;61260;51.090;-1.786;2022-10-03T14:43:02;101740.70;;;19.58;54.66
73073;BME280;61260;51.090;-1.786;2022-10-03T14:45:40;101737.63;;;19.42;55.35
73073;BME280;61260;51.090;-1.786;2022-10-03T14:48:16;101738.23;;;19.30;56.06
73073;BME280;61260;51.090;-1.786;2022-10-03T14:50:49;101740.77;;;19.15;57.11
73073;BME280;61260;51.090;-1.786;2022-10-03T14:53:25;101731.29;;;19.05;57.33
73073;BME280;61260;51.090;-1.786;2022-10-03T14:56:00;101731.23;;;18.97;58.29
73073;BME280;61260;51.090;-1.786;2022-10-03T14:58:36;101725.22;;;18.96;58.71
73073;BME280;61260;51.090;-1.786;2022-10-03T15:01:13;101722.20;;;19.01;59.14
73073;BME280;61260;51.090;-1.786;2022-10-03T15:03:55;101715.21;;;18.99;59.51
73073;BME280;61260;51.090;-1.786;2022-10-03T15:06:51;101710.14;;;18.99;60.00
73073;BME280;61260;51.090;-1.786;2022-10-03T15:09:26;101712.94;;;19.00;59.74
73073;BME280;61260;51.090;-1.786;2022-10-03T15:12:00;101717.11;;;18.99;59.86
73073;BME280;61260;51.090;-1.786;2022-10-03T15:14:36;101713.29;;;19.02;59.82
73073;BME280;61260;51.090;-1.786;2022-10-03T15:17:17;101707.61;;;19.03;59.92
73073;BME280;61260;51.090;-1.786;2022-10-03T15:19:50;101699.09;;;19.05;59.98
73073;BME280;61260;51.090;-1.786;2022-10-03T15:22:32;101694.27;;;19.06;59.69
73073;BME280;61260;51.090;-1.786;2022-10-03T15:25:07;101694.85;;;19.02;59.60
73073;BME280;61260;51.090;-1.786;2022-10-03T15:27:42;101693.02;;;18.85;59.22
73073;BME280;61260;51.090;-1.786;2022-10-03T15:30:20;101683.41;;;18.72;59.73
73073;BME280;61260;51.090;-1.786;2022-10-03T15:32:53;101688.96;;;18.69;59.69
73073;BME280;61260;51.090;-1.786;2022-10-03T15:35:29;101684.89;;;18.56;59.86
73073;BME280;61260;51.090;-1.786;2022-10-03T15:38:07;101681.16;;;18.46;60.46
73073;BME280;61260;51.090;-1.786;2022-10-03T15:40:40;101675.34;;;18.34;61.00
73073;BME280;61260;51.090;-1.786;2022-10-03T15:43:27;101670.68;;;18.26;61.31
73073;BME280;61260;51.090;-1.786;2022-10-03T15:46:04;101673.33;;;18.19;62.09
73073;BME280;61260;51.090;-1.786;2022-10-03T15:48:35;101663.61;;;18.15;62.45
73073;BME280;61260;51.090;-1.786;2022-10-03T15:51:15;101663.34;;;18.09;63.04
73073;BME280;61260;51.090;-1.786;2022-10-03T15:53:48;101661.02;;;18.03;63.34
73073;BME280;61260;51.090;-1.786;2022-10-03T15:56:24;101658.55;;;18.03;63.86
73073;BME280;61260;51.090;-1.786;2022-10-03T15:58:59;101654.19;;;18.01;64.34
73073;BME280;61260;51.090;-1.786;2022-10-03T16:01:35;101646.48;;;17.95;64.85
73073;BME280;61260;51.090;-1.786;2022-10-03T16:04:11;101642.84;;;17.85;65.18
73073;BME280;61260;51.090;-1.786;2022-10-03T16:06:48;101632.52;;;17.78;65.50
73073;BME280;61260;51.090;-1.786;2022-10-03T16:09:26;101629.94;;;17.70;66.10
73073;BME280;61260;51.090;-1.786;2022-10-03T16:12:13;101626.19;;;17.65;66.85
73073;BME280;61260;51.090;-1.786;2022-10-03T16:14:48;101630.69;;;17.61;67.26
73073;BME280;61260;51.090;-1.786;2022-10-03T16:17:22;101627.47;;;17.58;67.50
73073;BME280;61260;51.090;-1.786;2022-10-03T16:20:01;101625.44;;;17.54;67.58
73073;BME280;61260;51.090;-1.786;2022-10-03T16:22:39;101624.71;;;17.50;68.02
73073;BME280;61260;51.090;-1.786;2022-10-03T16:25:16;101624.02;;;17.43;68.77
73073;BME280;61260;51.090;-1.786;2022-10-03T16:27:53;101623.02;;;17.36;68.82
73073;BME280;61260;51.090;-1.786;2022-10-03T16:30:28;101618.85;;;17.30;69.37
73073;BME280;61260;51.090;-1.786;2022-10-03T16:33:05;101617.87;;;17.28;69.48
73073;BME280;61260;51.090;-1.786;2022-10-03T16:35:46;101609.43;;;17.28;69.71
73073;BME280;61260;51.090;-1.786;2022-10-03T16:38:22;101602.86;;;17.24;69.58
73073;BME280;61260;51.090;-1.786;2022-10-03T16:41:02;101603.16;;;17.19;69.98
73073;BME280;61260;51.090;-1.786;2022-10-03T16:43:33;101608.13;;;17.15;70.10
73073;BME280;61260;51.090;-1.786;2022-10-03T16:46:07;101608.13;;;17.11;70.43
73073;BME280;61260;51.090;-1.786;2022-10-03T16:48:42;101614.20;;;17.08;70.80
73073;BME280;61260;51.090;-1.786;2022-10-03T16:51:36;101607.59;;;17.09;70.67
73073;BME280;61260;51.090;-1.786;2022-10-03T16:54:11;101608.11;;;17.07;70.60